createdAt,value
2022-12-18T00:00:11.932Z,44.10
2022-12-18T00:00:42.491Z,48.30
2022-12-18T00:01:13.070Z,51.40
2022-12-18T00:01:43.716Z,49.00
2022-12-18T00:02:14.305Z,63.70
2022-12-18T00:02:45.006Z,69.90
2022-12-18T00:03:15.705Z,78.00
2022-12-18T00:03:46.850Z,75.80
2022-12-18T00:04:17.210Z,52.40
2022-12-18T00:04:47.824Z,49.20
2022-12-18T00:05:18.410Z,55.30
2022-12-18T00:05:48.983Z,51.90
2022-12-18T00:06:19.562Z,56.20
2022-12-18T00:06:50.134Z,46.80
2022-12-18T00:07:20.705Z,50.90
2022-12-18T00:07:51.303Z,50.10
2022-12-18T00:08:21.887Z,51.40
2022-12-18T00:08:52.445Z,46.20
2022-12-18T00:09:24.734Z,45.10
2022-12-18T00:09:53.875Z,47.70
2022-12-18T00:10:24.434Z,40.10
2022-12-18T00:10:54.988Z,49.20
2022-12-18T00:11:25.770Z,43.90
2022-12-18T00:11:56.348Z,42.70
2022-12-18T00:12:26.885Z,42.30
2022-12-18T00:12:57.454Z,41.70
2022-12-18T00:13:28.070Z,41.00
2022-12-18T00:13:58.628Z,35.40
2022-12-18T00:14:29.182Z,39.70
2022-12-18T00:14:59.751Z,38.40
2022-12-18T00:15:30.333Z,44.30
2022-12-18T00:16:00.953Z,44.20
2022-12-18T00:16:31.558Z,40.30
2022-12-18T00:17:02.136Z,43.00
2022-12-18T00:17:32.703Z,36.40
2022-12-18T00:18:03.279Z,42.30
2022-12-18T00:18:33.900Z,41.00
2022-12-18T00:19:04.439Z,40.30
2022-12-18T00:19:35.024Z,42.40
2022-12-18T00:20:05.588Z,49.30
2022-12-18T00:20:36.140Z,47.20
2022-12-18T00:21:06.707Z,44.60
2022-12-18T00:21:37.249Z,42.50
2022-12-18T00:22:07.798Z,42.40
2022-12-18T00:22:38.394Z,44.00
2022-12-18T00:23:08.938Z,42.20
2022-12-18T00:23:39.847Z,38.60
2022-12-18T00:24:10.103Z,47.90
2022-12-18T00:24:40.673Z,40.50
2022-12-18T00:25:11.271Z,43.70
2022-12-18T00:25:41.822Z,51.20
2022-12-18T00:26:12.386Z,45.60
2022-12-18T00:26:42.952Z,56.30
2022-12-18T00:27:13.520Z,61.30
2022-12-18T00:27:44.125Z,56.20
2022-12-18T00:28:14.711Z,48.40
2022-12-18T00:28:45.274Z,53.20
2022-12-18T00:29:15.863Z,54.10
2022-12-18T00:29:46.438Z,41.60
2022-12-18T00:30:16.980Z,42.70
2022-12-18T00:30:47.572Z,39.70
2022-12-18T00:31:18.180Z,37.80
2022-12-18T00:31:48.859Z,37.20
2022-12-18T00:32:19.406Z,40.40
2022-12-18T00:32:49.973Z,39.40
2022-12-18T00:33:20.539Z,41.80
2022-12-18T00:33:54.090Z,40.60
2022-12-18T00:34:21.937Z,42.50
2022-12-18T00:34:52.511Z,43.60
2022-12-18T00:35:23.067Z,39.00
2022-12-18T00:35:53.629Z,37.30
2022-12-18T00:36:24.187Z,40.50
2022-12-18T00:36:54.727Z,38.00
2022-12-18T00:37:25.295Z,38.80
2022-12-18T00:37:55.873Z,37.60
2022-12-18T00:38:26.442Z,36.60
2022-12-18T00:38:57.045Z,41.60
2022-12-18T00:39:27.602Z,45.50
2022-12-18T00:39:58.173Z,42.80
2022-12-18T00:40:28.794Z,38.90
2022-12-18T00:40:59.330Z,39.40
2022-12-18T00:41:29.922Z,42.70
2022-12-18T00:42:00.489Z,35.50
2022-12-18T00:42:31.027Z,36.30
2022-12-18T00:43:01.599Z,37.20
2022-12-18T00:43:32.136Z,41.10
2022-12-18T00:44:02.720Z,44.50
2022-12-18T00:44:33.301Z,42.30
2022-12-18T00:45:09.095Z,35.60
2022-12-18T00:45:34.739Z,37.90
2022-12-18T00:46:05.407Z,36.50
2022-12-18T00:46:36.000Z,36.30
2022-12-18T00:47:06.585Z,37.50
2022-12-18T00:47:37.161Z,38.10
2022-12-18T00:48:07.736Z,35.90
2022-12-18T00:48:38.462Z,35.90
2022-12-18T00:49:09.061Z,39.60
2022-12-18T00:49:39.658Z,42.30
2022-12-18T00:50:10.224Z,35.40
2022-12-18T00:50:40.803Z,33.30
2022-12-18T00:51:11.384Z,39.60
2022-12-18T00:51:41.965Z,45.00
2022-12-18T00:52:12.660Z,43.90
2022-12-18T00:52:43.222Z,48.90
2022-12-18T00:53:13.791Z,50.50
2022-12-18T00:53:44.316Z,47.10
2022-12-18T00:54:14.866Z,58.40
2022-12-18T00:54:45.428Z,53.20
2022-12-18T00:55:16.001Z,52.70
2022-12-18T00:55:46.682Z,49.40
2022-12-18T00:56:17.223Z,54.00
2022-12-18T00:56:49.879Z,80.20
2022-12-18T00:57:18.572Z,95.90
2022-12-18T00:57:49.129Z,69.40
2022-12-18T00:58:19.705Z,69.00
2022-12-18T00:58:50.306Z,64.20
2022-12-18T00:59:20.996Z,50.20
2022-12-18T00:59:51.568Z,61.70
2022-12-18T01:00:22.163Z,61.00
2022-12-18T01:00:52.810Z,48.50
2022-12-18T01:01:23.495Z,51.00
2022-12-18T01:01:54.278Z,51.80
2022-12-18T01:02:25.026Z,39.40
2022-12-18T01:02:55.745Z,34.50
2022-12-18T01:03:26.352Z,40.80
2022-12-18T01:03:56.927Z,39.50
2022-12-18T01:04:27.493Z,35.00
2022-12-18T01:04:58.105Z,39.10
2022-12-18T01:05:28.688Z,34.80
2022-12-18T01:05:59.231Z,41.60
2022-12-18T01:06:29.803Z,38.00
2022-12-18T01:07:00.358Z,47.10
2022-12-18T01:07:30.936Z,37.90
2022-12-18T01:08:01.500Z,40.90
2022-12-18T01:08:32.071Z,37.70
2022-12-18T01:09:02.638Z,38.70
2022-12-18T01:09:33.202Z,38.00
2022-12-18T01:10:03.782Z,43.80
2022-12-18T01:10:34.357Z,41.50
2022-12-18T01:11:04.938Z,35.20
2022-12-18T01:11:35.473Z,37.70
2022-12-18T01:12:06.030Z,37.90
2022-12-18T01:12:36.587Z,32.90
2022-12-18T01:13:07.139Z,34.70
2022-12-18T01:13:38.104Z,38.90
2022-12-18T01:14:08.415Z,32.50
2022-12-18T01:14:38.968Z,39.80
2022-12-18T01:15:09.520Z,41.10
2022-12-18T01:15:40.140Z,49.70
2022-12-18T01:16:10.770Z,60.70
2022-12-18T01:16:41.470Z,82.50
2022-12-18T01:17:12.068Z,98.40
2022-12-18T01:17:42.638Z,56.00
2022-12-18T01:18:13.176Z,63.70
2022-12-18T01:18:43.712Z,52.30
2022-12-18T01:19:14.235Z,36.80
2022-12-18T01:19:44.803Z,35.20
2022-12-18T01:20:15.381Z,34.40
2022-12-18T01:20:45.944Z,32.90
2022-12-18T01:21:16.514Z,37.70
2022-12-18T01:21:47.102Z,34.30
2022-12-18T01:22:17.639Z,32.70
2022-12-18T01:22:48.206Z,33.30
2022-12-18T01:23:18.780Z,31.40
2022-12-18T01:23:49.344Z,34.70
2022-12-18T01:24:19.939Z,33.00
2022-12-18T01:24:50.522Z,37.70
2022-12-18T01:25:21.068Z,44.50
2022-12-18T01:25:51.661Z,45.30
2022-12-18T01:26:22.282Z,48.80
2022-12-18T01:26:52.821Z,39.40
2022-12-18T01:27:23.410Z,49.40
2022-12-18T01:27:53.980Z,39.30
2022-12-18T01:28:24.556Z,40.40
2022-12-18T01:28:55.147Z,38.10
2022-12-18T01:29:25.699Z,41.20
2022-12-18T01:29:56.256Z,39.70
2022-12-18T01:30:26.831Z,35.60
2022-12-18T01:30:57.384Z,40.30
2022-12-18T01:31:28.032Z,36.90
2022-12-18T01:31:58.672Z,35.50
2022-12-18T01:32:29.305Z,38.80
2022-12-18T01:32:59.870Z,32.60
2022-12-18T01:33:30.435Z,41.20
2022-12-18T01:34:00.983Z,35.50
2022-12-18T01:34:31.558Z,34.80
2022-12-18T01:35:02.113Z,44.50
2022-12-18T01:35:32.683Z,37.30
2022-12-18T01:36:03.225Z,38.30
2022-12-18T01:36:33.783Z,35.40
2022-12-18T01:37:04.369Z,39.30
2022-12-18T01:37:34.945Z,39.40
2022-12-18T01:38:05.520Z,35.50
2022-12-18T01:38:36.068Z,36.50
2022-12-18T01:39:06.639Z,42.20
2022-12-18T01:39:37.191Z,34.60
2022-12-18T01:40:07.722Z,39.50
2022-12-18T01:40:38.302Z,35.90
2022-12-18T01:41:08.872Z,36.20
2022-12-18T01:41:39.448Z,39.10
2022-12-18T01:42:10.029Z,37.50
2022-12-18T01:42:40.579Z,33.60
2022-12-18T01:43:11.135Z,35.70
2022-12-18T01:43:41.713Z,34.70
2022-12-18T01:44:12.312Z,36.70
2022-12-18T01:44:42.885Z,36.00
2022-12-18T01:45:13.463Z,41.50
2022-12-18T01:45:44.113Z,38.10
2022-12-18T01:46:14.828Z,40.50
2022-12-18T01:46:45.448Z,39.30
2022-12-18T01:47:16.038Z,39.90
2022-12-18T01:47:46.625Z,39.20
2022-12-18T01:48:17.188Z,40.90
2022-12-18T01:48:47.750Z,41.40
2022-12-18T01:49:18.342Z,44.10
2022-12-18T01:49:48.891Z,38.50
2022-12-18T01:50:19.484Z,39.60
2022-12-18T01:50:50.050Z,39.50
2022-12-18T01:51:20.686Z,44.30
2022-12-18T01:51:51.401Z,44.70
2022-12-18T01:52:21.966Z,36.40
2022-12-18T01:52:52.538Z,42.30
2022-12-18T01:53:23.136Z,44.70
2022-12-18T01:53:53.687Z,41.60
2022-12-18T01:54:24.244Z,49.30
2022-12-18T01:54:54.800Z,39.50
2022-12-18T01:55:25.333Z,38.80
2022-12-18T01:55:55.932Z,37.40
2022-12-18T01:56:26.505Z,39.70
2022-12-18T01:56:57.074Z,44.20
2022-12-18T01:57:27.658Z,43.00
2022-12-18T01:57:58.240Z,41.00
2022-12-18T01:58:28.797Z,44.90
2022-12-18T01:58:59.347Z,44.90
2022-12-18T01:59:29.934Z,46.50
2022-12-18T02:00:00.515Z,46.20
2022-12-18T02:00:31.096Z,46.40
2022-12-18T02:01:01.698Z,39.40
2022-12-18T02:01:32.489Z,40.50
2022-12-18T02:02:03.447Z,49.40
2022-12-18T02:02:34.255Z,40.80
2022-12-18T02:03:04.870Z,43.20
2022-12-18T02:03:36.251Z,43.40
2022-12-18T02:04:06.005Z,41.10
2022-12-18T02:04:36.590Z,42.60
2022-12-18T02:05:07.161Z,49.50
2022-12-18T02:05:37.700Z,38.60
2022-12-18T02:06:08.676Z,41.70
2022-12-18T02:06:39.231Z,42.20
2022-12-18T02:07:09.829Z,42.50
2022-12-18T02:07:40.426Z,44.40
2022-12-18T02:08:10.977Z,39.80
2022-12-18T02:08:41.508Z,40.40
2022-12-18T02:09:12.070Z,44.00
2022-12-18T02:09:42.618Z,41.50
2022-12-18T02:10:13.149Z,38.80
2022-12-18T02:10:43.753Z,44.00
2022-12-18T02:11:14.297Z,42.40
2022-12-18T02:11:44.888Z,43.90
2022-12-18T02:12:15.475Z,41.40
2022-12-18T02:12:46.177Z,41.10
2022-12-18T02:13:16.712Z,40.30
2022-12-18T02:13:47.317Z,44.70
2022-12-18T02:14:17.889Z,43.90
2022-12-18T02:14:48.436Z,44.90
2022-12-18T02:15:19.031Z,47.30
2022-12-18T02:15:49.618Z,38.50
2022-12-18T02:16:20.282Z,41.80
2022-12-18T02:16:50.949Z,45.00
2022-12-18T02:17:21.567Z,39.30
2022-12-18T02:17:52.135Z,40.50
2022-12-18T02:18:22.701Z,43.50
2022-12-18T02:18:53.303Z,40.90
2022-12-18T02:19:23.856Z,46.90
2022-12-18T02:19:54.416Z,44.90
2022-12-18T02:20:25.001Z,49.40
2022-12-18T02:20:55.585Z,42.50
2022-12-18T02:21:26.191Z,39.80
2022-12-18T02:21:56.778Z,39.40
2022-12-18T02:22:27.359Z,39.50
2022-12-18T02:22:57.944Z,38.90
2022-12-18T02:23:28.531Z,39.40
2022-12-18T02:23:59.147Z,45.40
2022-12-18T02:24:29.696Z,41.00
2022-12-18T02:25:00.271Z,44.10
2022-12-18T02:25:30.833Z,37.40
2022-12-18T02:26:01.381Z,39.20
2022-12-18T02:26:31.941Z,44.40
2022-12-18T02:27:02.512Z,40.70
2022-12-18T02:27:33.086Z,45.70
2022-12-18T02:28:03.795Z,48.40
2022-12-18T02:28:34.343Z,38.40
2022-12-18T02:29:04.904Z,50.40
2022-12-18T02:29:35.491Z,40.50
2022-12-18T02:30:06.041Z,36.20
2022-12-18T02:30:36.682Z,44.90
2022-12-18T02:31:07.314Z,48.10
2022-12-18T02:31:37.881Z,41.20
2022-12-18T02:32:08.453Z,37.00
2022-12-18T02:32:39.029Z,42.10
2022-12-18T02:33:09.614Z,43.10
2022-12-18T02:33:40.697Z,36.90
2022-12-18T02:34:11.054Z,40.00
2022-12-18T02:34:41.653Z,39.90
2022-12-18T02:35:12.216Z,39.60
2022-12-18T02:35:42.777Z,38.40
2022-12-18T02:36:13.365Z,43.90
2022-12-18T02:36:43.917Z,42.40
2022-12-18T02:37:14.515Z,42.70
2022-12-18T02:37:45.070Z,40.40
2022-12-18T02:38:15.616Z,43.30
2022-12-18T02:38:46.152Z,35.00
2022-12-18T02:39:16.734Z,38.80
2022-12-18T02:39:47.299Z,40.10
2022-12-18T02:40:17.882Z,37.30
2022-12-18T02:40:48.460Z,33.40
2022-12-18T02:41:19.007Z,37.10
2022-12-18T02:41:49.572Z,39.10
2022-12-18T02:42:20.112Z,40.00
2022-12-18T02:42:50.673Z,43.40
2022-12-18T02:43:21.368Z,43.90
2022-12-18T02:43:51.901Z,39.30
2022-12-18T02:44:22.449Z,40.40
2022-12-18T02:44:53.005Z,39.30
2022-12-18T02:45:23.560Z,37.30
2022-12-18T02:45:54.130Z,40.20
2022-12-18T02:46:24.673Z,44.80
2022-12-18T02:46:55.232Z,37.60
2022-12-18T02:47:25.797Z,45.50
2022-12-18T02:47:56.378Z,39.60
2022-12-18T02:48:26.928Z,41.10
2022-12-18T02:48:57.514Z,37.30
2022-12-18T02:49:28.101Z,42.80
2022-12-18T02:49:58.694Z,37.20
2022-12-18T02:50:29.229Z,42.40
2022-12-18T02:50:59.797Z,35.50
2022-12-18T02:51:30.377Z,35.90
2022-12-18T02:52:00.959Z,41.30
2022-12-18T02:52:31.544Z,36.00
2022-12-18T02:53:02.126Z,40.80
2022-12-18T02:53:32.695Z,38.60
2022-12-18T02:54:03.272Z,35.90
2022-12-18T02:54:33.852Z,35.50
2022-12-18T02:55:04.416Z,40.60
2022-12-18T02:55:34.986Z,39.10
2022-12-18T02:56:05.554Z,40.60
2022-12-18T02:56:36.132Z,39.60
2022-12-18T02:57:06.674Z,39.40
2022-12-18T02:57:37.231Z,38.10
2022-12-18T02:58:07.783Z,39.50
2022-12-18T02:58:38.465Z,39.10
2022-12-18T02:59:08.995Z,37.80
2022-12-18T02:59:39.572Z,37.50
2022-12-18T03:00:10.142Z,34.50
2022-12-18T03:00:40.704Z,37.60
2022-12-18T03:01:11.298Z,45.30
2022-12-18T03:01:42.046Z,42.80
2022-12-18T03:02:12.869Z,41.00
2022-12-18T03:02:43.739Z,37.10
2022-12-18T03:03:14.358Z,44.00
2022-12-18T03:03:44.946Z,44.10
2022-12-18T03:04:15.515Z,38.10
2022-12-18T03:04:46.053Z,34.00
2022-12-18T03:05:16.619Z,38.60
2022-12-18T03:05:47.181Z,39.10
2022-12-18T03:06:18.172Z,37.60
2022-12-18T03:06:48.762Z,42.00
2022-12-18T03:07:19.320Z,37.60
2022-12-18T03:07:49.906Z,36.10
2022-12-18T03:08:20.472Z,40.00
2022-12-18T03:08:51.033Z,35.60
2022-12-18T03:09:21.611Z,35.70
2022-12-18T03:09:52.151Z,34.50
2022-12-18T03:10:22.711Z,42.30
2022-12-18T03:10:53.245Z,39.40
2022-12-18T03:11:23.816Z,38.20
2022-12-18T03:11:54.413Z,37.30
2022-12-18T03:12:25.002Z,35.10
2022-12-18T03:12:55.539Z,39.10
2022-12-18T03:13:26.082Z,34.50
2022-12-18T03:13:56.744Z,35.40
2022-12-18T03:14:27.357Z,39.30
2022-12-18T03:14:57.909Z,39.80
2022-12-18T03:15:28.474Z,34.70
2022-12-18T03:15:59.017Z,34.00
2022-12-18T03:16:29.690Z,36.20
2022-12-18T03:17:00.317Z,41.20
2022-12-18T03:17:30.846Z,35.50
2022-12-18T03:18:01.429Z,35.90
2022-12-18T03:18:32.022Z,38.10
2022-12-18T03:19:02.587Z,38.30
2022-12-18T03:19:33.148Z,36.20
2022-12-18T03:20:03.709Z,41.00
2022-12-18T03:20:34.291Z,39.70
2022-12-18T03:21:04.840Z,39.30
2022-12-18T03:21:35.443Z,36.40
2022-12-18T03:22:06.026Z,38.40
2022-12-18T03:22:36.583Z,33.30
2022-12-18T03:23:07.158Z,33.20
2022-12-18T03:23:37.835Z,33.50
2022-12-18T03:24:08.423Z,34.60
2022-12-18T03:24:39.278Z,35.40
2022-12-18T03:25:09.880Z,39.10
2022-12-18T03:25:40.454Z,37.90
2022-12-18T03:26:11.009Z,35.20
2022-12-18T03:26:41.570Z,33.90
2022-12-18T03:27:12.156Z,37.00
2022-12-18T03:27:42.754Z,34.40
2022-12-18T03:28:13.318Z,34.60
2022-12-18T03:28:43.840Z,37.80
2022-12-18T03:29:20.373Z,34.80
2022-12-18T03:29:45.301Z,40.10
2022-12-18T03:30:15.834Z,42.70
2022-12-18T03:30:46.516Z,33.70
2022-12-18T03:31:17.198Z,36.70
2022-12-18T03:31:47.790Z,38.30
2022-12-18T03:32:18.356Z,36.40
2022-12-18T03:32:48.916Z,29.20
2022-12-18T03:33:19.509Z,33.10
2022-12-18T03:33:50.049Z,35.30
2022-12-18T03:34:20.641Z,32.20
2022-12-18T03:34:51.262Z,32.90
2022-12-18T03:35:21.848Z,36.80
2022-12-18T03:35:52.424Z,34.60
2022-12-18T03:36:22.985Z,35.40
2022-12-18T03:36:53.568Z,31.80
2022-12-18T03:37:24.152Z,34.80
2022-12-18T03:37:54.706Z,37.50
2022-12-18T03:38:25.279Z,34.90
2022-12-18T03:38:55.845Z,33.00
2022-12-18T03:39:26.395Z,29.20
2022-12-18T03:39:56.977Z,37.30
2022-12-18T03:40:27.561Z,32.50
2022-12-18T03:40:58.138Z,37.20
2022-12-18T03:41:28.726Z,31.20
2022-12-18T03:41:59.275Z,32.20
2022-12-18T03:42:29.851Z,35.60
2022-12-18T03:43:00.438Z,37.00
2022-12-18T03:43:30.990Z,34.50
2022-12-18T03:44:01.560Z,35.80
2022-12-18T03:44:32.136Z,32.00
2022-12-18T03:45:02.818Z,37.60
2022-12-18T03:45:33.340Z,32.70
2022-12-18T03:46:03.963Z,34.10
2022-12-18T03:46:34.658Z,35.10
2022-12-18T03:47:05.259Z,31.80
2022-12-18T03:47:35.855Z,30.40
2022-12-18T03:48:06.442Z,29.80
2022-12-18T03:48:37.017Z,35.70
2022-12-18T03:49:07.597Z,39.40
2022-12-18T03:49:38.179Z,36.70
2022-12-18T03:50:12.593Z,35.70
2022-12-18T03:50:39.392Z,31.20
2022-12-18T03:51:09.983Z,44.60
2022-12-18T03:51:40.534Z,35.80
2022-12-18T03:52:11.089Z,36.10
2022-12-18T03:52:41.705Z,34.50
2022-12-18T03:53:12.251Z,34.20
2022-12-18T03:53:43.267Z,36.10
2022-12-18T03:54:13.600Z,31.20
2022-12-18T03:54:44.177Z,31.80
2022-12-18T03:55:14.713Z,27.50
2022-12-18T03:55:45.278Z,29.20
2022-12-18T03:56:15.841Z,30.90
2022-12-18T03:56:46.432Z,33.10
2022-12-18T03:57:17.022Z,32.00
2022-12-18T03:57:47.593Z,31.70
2022-12-18T03:58:18.141Z,25.90
2022-12-18T03:58:48.679Z,37.40
2022-12-18T03:59:19.268Z,35.40
2022-12-18T03:59:49.825Z,33.70
2022-12-18T04:00:20.526Z,32.00
2022-12-18T04:00:51.053Z,31.00
2022-12-18T04:01:21.782Z,35.70
2022-12-18T04:01:52.584Z,32.40
2022-12-18T04:02:23.371Z,24.50
2022-12-18T04:02:53.987Z,29.10
2022-12-18T04:03:26.684Z,30.10
2022-12-18T04:03:55.362Z,34.10
2022-12-18T04:04:25.907Z,34.10
2022-12-18T04:04:56.476Z,31.10
2022-12-18T04:05:27.026Z,28.30
2022-12-18T04:05:57.573Z,26.70
2022-12-18T04:06:28.149Z,34.60
2022-12-18T04:06:58.712Z,29.20
2022-12-18T04:07:29.283Z,31.50
2022-12-18T04:07:59.862Z,33.60
2022-12-18T04:08:30.446Z,30.30
2022-12-18T04:09:01.008Z,30.10
2022-12-18T04:09:31.608Z,34.60
2022-12-18T04:10:02.191Z,34.00
2022-12-18T04:10:32.826Z,33.20
2022-12-18T04:11:03.397Z,32.10
2022-12-18T04:11:33.971Z,31.50
2022-12-18T04:12:04.540Z,34.80
2022-12-18T04:12:35.124Z,26.60
2022-12-18T04:13:05.694Z,32.90
2022-12-18T04:13:36.651Z,32.70
2022-12-18T04:14:07.421Z,30.40
2022-12-18T04:14:37.713Z,32.60
2022-12-18T04:15:08.250Z,30.70
2022-12-18T04:15:44.812Z,37.60
2022-12-18T04:16:09.832Z,30.60
2022-12-18T04:16:40.450Z,29.50
2022-12-18T04:17:10.997Z,31.50
2022-12-18T04:17:41.563Z,31.60
2022-12-18T04:18:12.135Z,34.00
2022-12-18T04:18:42.726Z,27.70
2022-12-18T04:19:13.299Z,32.30
2022-12-18T04:19:43.868Z,33.50
2022-12-18T04:20:14.439Z,33.40
2022-12-18T04:20:45.006Z,35.00
2022-12-18T04:21:15.562Z,34.60
2022-12-18T04:21:46.150Z,30.50
2022-12-18T04:22:16.701Z,30.80
2022-12-18T04:22:47.248Z,31.10
2022-12-18T04:23:17.800Z,36.00
2022-12-18T04:23:48.365Z,35.20
2022-12-18T04:24:18.950Z,36.30
2022-12-18T04:24:49.546Z,34.20
2022-12-18T04:25:20.122Z,33.10
2022-12-18T04:25:50.680Z,29.60
2022-12-18T04:26:21.226Z,35.20
2022-12-18T04:26:51.791Z,28.20
2022-12-18T04:27:22.371Z,29.50
2022-12-18T04:27:52.951Z,35.50
2022-12-18T04:28:23.516Z,35.90
2022-12-18T04:28:54.094Z,35.60
2022-12-18T04:29:24.662Z,33.30
2022-12-18T04:29:55.218Z,35.30
2022-12-18T04:30:25.785Z,30.80
2022-12-18T04:30:56.420Z,38.20
2022-12-18T04:31:27.193Z,28.80
2022-12-18T04:31:57.808Z,30.80
2022-12-18T04:32:28.395Z,30.30
2022-12-18T04:32:58.929Z,36.10
2022-12-18T04:33:29.524Z,32.80
2022-12-18T04:34:00.088Z,29.80
2022-12-18T04:34:30.652Z,29.90
2022-12-18T04:35:01.633Z,33.50
2022-12-18T04:35:32.206Z,30.30
2022-12-18T04:36:02.790Z,29.30
2022-12-18T04:36:33.328Z,37.00
2022-12-18T04:37:03.901Z,28.20
2022-12-18T04:37:34.450Z,32.70
2022-12-18T04:38:05.044Z,36.70
2022-12-18T04:38:35.627Z,34.90
2022-12-18T04:39:06.208Z,38.00
2022-12-18T04:39:36.778Z,29.40
2022-12-18T04:40:07.329Z,37.30
2022-12-18T04:40:37.883Z,31.40
2022-12-18T04:41:08.438Z,34.50
2022-12-18T04:41:39.029Z,32.00
2022-12-18T04:42:09.614Z,33.60
2022-12-18T04:42:40.295Z,31.40
2022-12-18T04:43:10.932Z,36.40
2022-12-18T04:43:42.085Z,33.20
2022-12-18T04:44:12.314Z,31.30
2022-12-18T04:44:42.852Z,33.70
2022-12-18T04:45:13.382Z,31.00
2022-12-18T04:45:43.959Z,28.60
2022-12-18T04:46:14.620Z,32.10
2022-12-18T04:46:45.506Z,31.30
2022-12-18T04:47:16.113Z,32.00
2022-12-18T04:47:46.664Z,35.00
2022-12-18T04:48:17.263Z,37.40
2022-12-18T04:48:47.846Z,30.70
2022-12-18T04:49:18.409Z,34.40
2022-12-18T04:49:48.994Z,34.10
2022-12-18T04:50:19.579Z,30.30
2022-12-18T04:50:50.163Z,32.80
2022-12-18T04:51:26.172Z,29.20
2022-12-18T04:51:51.509Z,36.80
2022-12-18T04:52:25.133Z,34.70
2022-12-18T04:52:53.059Z,35.50
2022-12-18T04:53:23.618Z,32.30
2022-12-18T04:53:54.191Z,29.10
2022-12-18T04:54:24.726Z,31.50
2022-12-18T04:54:55.278Z,35.20
2022-12-18T04:55:25.859Z,30.50
2022-12-18T04:55:56.390Z,28.90
2022-12-18T04:56:26.976Z,30.80
2022-12-18T04:56:57.538Z,29.10
2022-12-18T04:57:28.080Z,32.60
2022-12-18T04:57:58.641Z,32.20
2022-12-18T04:58:29.217Z,32.50
2022-12-18T04:58:59.793Z,32.60
2022-12-18T04:59:30.366Z,33.10
2022-12-18T05:00:00.952Z,35.00
2022-12-18T05:00:31.566Z,29.00
2022-12-18T05:01:02.145Z,34.10
2022-12-18T05:01:34.963Z,30.60
2022-12-18T05:02:03.531Z,30.90
2022-12-18T05:02:34.294Z,34.60
2022-12-18T05:03:04.926Z,34.40
2022-12-18T05:03:35.545Z,34.00
2022-12-18T05:04:06.155Z,33.30
2022-12-18T05:04:36.770Z,34.30
2022-12-18T05:05:07.335Z,33.90
2022-12-18T05:05:37.914Z,29.10
2022-12-18T05:06:08.486Z,36.70
2022-12-18T05:06:39.088Z,30.60
2022-12-18T05:07:09.652Z,35.00
2022-12-18T05:07:40.223Z,28.50
2022-12-18T05:08:11.000Z,33.30
2022-12-18T05:08:41.559Z,35.50
2022-12-18T05:09:12.137Z,37.40
2022-12-18T05:09:42.685Z,36.70
2022-12-18T05:10:13.242Z,35.80
2022-12-18T05:10:43.813Z,35.30
2022-12-18T05:11:14.379Z,35.20
2022-12-18T05:11:44.983Z,36.60
2022-12-18T05:12:15.855Z,32.40
2022-12-18T05:12:46.408Z,32.30
2022-12-18T05:13:16.979Z,34.20
2022-12-18T05:13:47.565Z,33.00
2022-12-18T05:14:18.152Z,34.20
2022-12-18T05:14:48.717Z,37.90
2022-12-18T05:15:19.279Z,36.80
2022-12-18T05:15:49.891Z,37.50
2022-12-18T05:16:20.558Z,35.30
2022-12-18T05:16:51.192Z,35.40
2022-12-18T05:17:21.901Z,37.60
2022-12-18T05:17:52.440Z,36.40
2022-12-18T05:18:23.008Z,40.50
2022-12-18T05:18:53.593Z,36.50
2022-12-18T05:19:24.146Z,37.90
2022-12-18T05:19:54.706Z,35.40
2022-12-18T05:20:25.264Z,34.00
2022-12-18T05:20:55.844Z,34.90
2022-12-18T05:21:26.444Z,36.30
2022-12-18T05:21:56.993Z,37.40
2022-12-18T05:22:27.562Z,27.20
2022-12-18T05:22:58.339Z,35.20
2022-12-18T05:23:28.912Z,32.80
2022-12-18T05:23:59.499Z,32.30
2022-12-18T05:24:30.069Z,31.70
2022-12-18T05:25:00.626Z,36.10
2022-12-18T05:25:31.190Z,34.30
2022-12-18T05:26:01.837Z,30.70
2022-12-18T05:26:32.408Z,35.80
2022-12-18T05:27:02.976Z,33.30
2022-12-18T05:27:33.528Z,36.10
2022-12-18T05:28:04.102Z,35.30
2022-12-18T05:28:34.657Z,33.60
2022-12-18T05:29:05.247Z,33.00
2022-12-18T05:29:35.787Z,38.70
2022-12-18T05:30:06.317Z,38.90
2022-12-18T05:30:36.891Z,32.20
2022-12-18T05:31:07.526Z,36.80
2022-12-18T05:31:39.749Z,37.80
2022-12-18T05:32:08.945Z,37.40
2022-12-18T05:32:39.641Z,34.70
2022-12-18T05:33:10.181Z,37.10
2022-12-18T05:33:41.096Z,35.90
2022-12-18T05:34:11.790Z,31.70
2022-12-18T05:34:42.305Z,36.40
2022-12-18T05:35:12.896Z,38.40
2022-12-18T05:35:43.475Z,39.30
2022-12-18T05:36:14.051Z,32.60
2022-12-18T05:36:44.621Z,33.70
2022-12-18T05:37:15.225Z,32.20
2022-12-18T05:37:45.783Z,33.80
2022-12-18T05:38:16.383Z,31.60
2022-12-18T05:38:46.988Z,37.60
2022-12-18T05:39:17.577Z,32.40
2022-12-18T05:39:48.148Z,37.00
2022-12-18T05:40:18.700Z,39.70
2022-12-18T05:40:49.249Z,33.20
2022-12-18T05:41:19.859Z,32.10
2022-12-18T05:41:50.439Z,38.00
2022-12-18T05:42:21.024Z,38.60
2022-12-18T05:42:51.577Z,36.70
2022-12-18T05:43:22.160Z,33.70
2022-12-18T05:43:52.731Z,38.10
2022-12-18T05:44:23.306Z,35.50
2022-12-18T05:44:53.871Z,39.20
2022-12-18T05:45:24.437Z,33.20
2022-12-18T05:45:55.014Z,33.70
2022-12-18T05:46:25.648Z,34.10
2022-12-18T05:46:56.281Z,36.80
2022-12-18T05:47:26.856Z,34.20
2022-12-18T05:47:57.529Z,33.80
2022-12-18T05:48:28.056Z,38.90
2022-12-18T05:48:58.640Z,36.70
2022-12-18T05:49:29.214Z,36.00
2022-12-18T05:49:59.780Z,37.20
2022-12-18T05:50:30.350Z,37.30
2022-12-18T05:51:00.911Z,41.40
2022-12-18T05:51:31.523Z,44.70
2022-12-18T05:52:02.093Z,34.70
2022-12-18T05:52:32.686Z,37.80
2022-12-18T05:53:03.286Z,37.50
2022-12-18T05:53:33.838Z,35.80
2022-12-18T05:54:04.421Z,34.10
2022-12-18T05:54:35.266Z,34.70
2022-12-18T05:55:05.831Z,35.00
2022-12-18T05:55:36.381Z,31.80
2022-12-18T05:56:06.971Z,38.50
2022-12-18T05:56:37.537Z,35.90
2022-12-18T05:57:08.103Z,35.30
2022-12-18T05:57:38.673Z,34.00
2022-12-18T05:58:09.253Z,34.10
2022-12-18T05:58:39.848Z,34.20
2022-12-18T05:59:10.420Z,30.30
2022-12-18T05:59:40.988Z,37.30
2022-12-18T06:00:11.549Z,36.40
2022-12-18T06:00:42.109Z,41.20
2022-12-18T06:01:12.644Z,37.70
2022-12-18T06:01:43.310Z,42.00
2022-12-18T06:02:14.050Z,36.00
2022-12-18T06:02:44.798Z,40.10
2022-12-18T06:03:15.708Z,37.10
2022-12-18T06:03:46.775Z,38.00
2022-12-18T06:04:17.254Z,36.30
2022-12-18T06:04:47.812Z,30.00
2022-12-18T06:05:18.375Z,36.50
2022-12-18T06:05:48.979Z,40.50
2022-12-18T06:06:19.551Z,34.50
2022-12-18T06:06:50.095Z,38.10
2022-12-18T06:07:20.679Z,35.40
2022-12-18T06:07:51.227Z,30.80
2022-12-18T06:08:22.162Z,35.00
2022-12-18T06:08:52.739Z,31.20
2022-12-18T06:09:23.361Z,40.10
2022-12-18T06:09:53.937Z,37.00
2022-12-18T06:10:24.504Z,33.60
2022-12-18T06:10:55.081Z,34.30
2022-12-18T06:11:25.692Z,31.80
2022-12-18T06:11:56.279Z,34.80
2022-12-18T06:12:26.860Z,34.40
2022-12-18T06:12:57.448Z,35.00
2022-12-18T06:13:28.023Z,37.00
2022-12-18T06:14:00.161Z,34.90
2022-12-18T06:14:29.121Z,36.40
2022-12-18T06:14:59.704Z,37.70
2022-12-18T06:15:30.275Z,34.90
2022-12-18T06:16:00.922Z,40.50
2022-12-18T06:16:31.587Z,34.00
2022-12-18T06:17:02.178Z,33.90
2022-12-18T06:17:32.744Z,35.90
2022-12-18T06:18:03.320Z,37.10
2022-12-18T06:18:34.032Z,37.30
2022-12-18T06:19:04.591Z,39.20
2022-12-18T06:19:35.163Z,38.20
2022-12-18T06:20:05.800Z,33.30
2022-12-18T06:20:36.365Z,37.20
2022-12-18T06:21:06.936Z,34.90
2022-12-18T06:21:37.489Z,29.70
2022-12-18T06:22:08.055Z,32.80
2022-12-18T06:22:38.630Z,37.40
2022-12-18T06:23:09.226Z,34.70
2022-12-18T06:23:40.186Z,34.10
2022-12-18T06:24:10.509Z,36.60
2022-12-18T06:24:41.104Z,39.90
2022-12-18T06:25:11.900Z,39.70
2022-12-18T06:25:42.471Z,35.30
2022-12-18T06:26:13.039Z,34.80
2022-12-18T06:26:43.621Z,33.70
2022-12-18T06:27:14.187Z,36.20
2022-12-18T06:27:44.733Z,36.60
2022-12-18T06:28:15.313Z,33.80
2022-12-18T06:28:45.961Z,40.90
2022-12-18T06:29:16.664Z,42.80
2022-12-18T06:29:47.210Z,55.90
2022-12-18T06:30:17.812Z,56.60
2022-12-18T06:30:48.405Z,56.50
2022-12-18T06:31:19.034Z,44.40
2022-12-18T06:31:49.628Z,37.40
2022-12-18T06:32:20.185Z,33.60
2022-12-18T06:32:56.397Z,45.60
2022-12-18T06:33:21.503Z,40.60
2022-12-18T06:33:52.722Z,38.30